createdAt,value
2023-02-12T00:01:12.618Z,6.50
2023-02-12T00:03:39.913Z,6.50
2023-02-12T00:06:08.078Z,6.50
2023-02-12T00:08:34.918Z,6.50
2023-02-12T00:11:14.884Z,6.50
2023-02-12T00:13:41.868Z,6.50
2023-02-12T00:16:11.042Z,6.40
2023-02-12T00:18:37.782Z,6.40
2023-02-12T00:21:05.253Z,6.40
2023-02-12T00:23:32.271Z,6.40
2023-02-12T00:25:58.852Z,6.40
2023-02-12T00:28:25.611Z,6.40
2023-02-12T00:30:52.416Z,6.50
2023-02-12T00:33:19.019Z,6.40
2023-02-12T00:35:45.633Z,6.40
2023-02-12T00:38:12.278Z,6.30
2023-02-12T00:40:38.881Z,6.40
2023-02-12T00:43:05.939Z,6.40
2023-02-12T00:45:32.494Z,6.30
2023-02-12T00:47:59.019Z,6.30
2023-02-12T00:50:25.661Z,6.30
2023-02-12T00:52:52.228Z,6.30
2023-02-12T00:55:19.124Z,6.30
2023-02-12T00:57:45.707Z,6.30
2023-02-12T01:00:13.538Z,6.30
2023-02-12T01:02:40.072Z,6.30
2023-02-12T01:05:06.762Z,6.20
2023-02-12T01:07:33.313Z,6.20
2023-02-12T01:10:01.975Z,6.20
2023-02-12T01:12:28.521Z,6.20
2023-02-12T01:14:55.082Z,6.20
2023-02-12T01:17:21.674Z,6.20
2023-02-12T01:19:48.444Z,6.20
2023-02-12T01:22:15.105Z,6.20
2023-02-12T01:24:41.646Z,6.10
2023-02-12T01:27:08.268Z,6.20
2023-02-12T01:29:34.791Z,6.20
2023-02-12T01:32:01.401Z,6.20
2023-02-12T01:34:28.041Z,6.20
2023-02-12T01:36:54.596Z,6.20
2023-02-12T01:39:21.244Z,6.10
2023-02-12T01:41:47.739Z,6.10
2023-02-12T01:44:25.508Z,6.10
2023-02-12T01:46:57.675Z,6.10
2023-02-12T01:49:47.112Z,6.10
2023-02-12T01:52:24.841Z,6.10
2023-02-12T01:54:55.031Z,6.10
2023-02-12T01:57:24.595Z,6.10
2023-02-12T01:59:54.564Z,6.10
2023-02-12T02:02:21.144Z,6.10
2023-02-12T02:04:55.517Z,6.10
2023-02-12T02:07:22.151Z,6.10
2023-02-12T02:09:49.040Z,6.00
2023-02-12T02:12:34.402Z,6.00
2023-02-12T02:15:03.006Z,6.00
2023-02-12T02:17:32.634Z,6.00
2023-02-12T02:20:36.516Z,6.00
2023-02-12T02:23:45.302Z,6.00
2023-02-12T02:26:22.911Z,6.10
2023-02-12T02:29:17.303Z,6.20
2023-02-12T02:32:00.845Z,6.20
2023-02-12T02:34:46.263Z,6.20
2023-02-12T02:37:31.344Z,6.20
2023-02-12T02:40:16.067Z,6.10
2023-02-12T02:42:58.436Z,6.10
2023-02-12T02:45:38.136Z,6.20
2023-02-12T02:48:33.379Z,6.20
2023-02-12T02:51:06.615Z,6.20
2023-02-12T02:53:38.574Z,6.20
2023-02-12T02:56:08.763Z,6.20
2023-02-12T02:58:41.050Z,6.20
2023-02-12T03:01:17.951Z,6.20
2023-02-12T03:04:01.237Z,6.20
2023-02-12T03:06:34.368Z,6.20
2023-02-12T03:09:06.538Z,6.20
2023-02-12T03:11:34.248Z,6.30
2023-02-12T03:14:12.176Z,6.20
2023-02-12T03:16:48.100Z,6.20
2023-02-12T03:19:20.481Z,6.20
2023-02-12T03:21:53.583Z,6.20
2023-02-12T03:24:27.668Z,6.20
2023-02-12T03:27:06.157Z,6.10
2023-02-12T03:29:32.760Z,6.20
2023-02-12T03:32:14.120Z,6.10
2023-02-12T03:35:08.622Z,6.10
2023-02-12T03:37:40.546Z,6.20
2023-02-12T03:40:20.815Z,6.10
2023-02-12T03:43:12.411Z,6.10
2023-02-12T03:45:49.808Z,6.10
2023-02-12T03:48:41.121Z,6.00
2023-02-12T03:51:20.489Z,6.10
2023-02-12T03:53:47.685Z,6.00
2023-02-12T03:56:18.972Z,6.00
2023-02-12T03:58:45.987Z,6.00
2023-02-12T04:01:13.492Z,6.10
2023-02-12T04:03:41.037Z,6.10
2023-02-12T04:06:23.506Z,6.10
2023-02-12T04:08:50.143Z,6.00
2023-02-12T04:11:30.797Z,6.00
2023-02-12T04:14:21.638Z,6.10
2023-02-12T04:17:08.907Z,6.10
2023-02-12T04:20:03.009Z,6.10
2023-02-12T04:22:40.031Z,6.10
2023-02-12T04:25:52.138Z,6.10
2023-02-12T04:28:47.917Z,6.10
2023-02-12T04:31:30.940Z,6.10
2023-02-12T04:34:18.566Z,6.10
2023-02-12T04:37:15.860Z,6.10
2023-02-12T04:39:44.159Z,6.10
2023-02-12T04:42:11.271Z,6.10
2023-02-12T04:44:40.491Z,6.10
2023-02-12T04:47:07.069Z,6.10
2023-02-12T04:49:33.818Z,6.10
2023-02-12T04:52:00.409Z,6.10
2023-02-12T04:54:27.040Z,6.10
2023-02-12T04:56:53.567Z,6.10
2023-02-12T04:59:20.152Z,6.10
2023-02-12T05:01:46.986Z,6.00
2023-02-12T05:04:15.768Z,6.00
2023-02-12T05:06:44.101Z,6.00
2023-02-12T05:09:14.364Z,6.00
2023-02-12T05:11:41.035Z,6.10
2023-02-12T05:14:07.577Z,6.00
2023-02-12T05:16:34.194Z,6.00
2023-02-12T05:19:00.730Z,6.00
2023-02-12T05:21:27.333Z,6.00
2023-02-12T05:23:53.892Z,6.00
2023-02-12T05:26:21.927Z,6.00
2023-02-12T05:28:48.637Z,6.00
2023-02-12T05:31:21.029Z,6.00
2023-02-12T05:33:49.203Z,6.00
2023-02-12T05:36:18.933Z,6.00
2023-02-12T05:38:45.648Z,6.10
2023-02-12T05:41:17.395Z,6.10
2023-02-12T05:43:44.134Z,6.10
2023-02-12T05:46:11.425Z,6.10
2023-02-12T05:48:38.635Z,6.10
2023-02-12T05:51:08.484Z,6.10
2023-02-12T05:53:36.017Z,6.10
2023-02-12T05:56:20.405Z,6.10
2023-02-12T05:58:51.558Z,6.00
2023-02-12T06:01:22.606Z,6.10
2023-02-12T06:03:49.239Z,6.00
2023-02-12T06:06:15.783Z,6.00
2023-02-12T06:08:42.339Z,6.00
2023-02-12T06:11:13.235Z,6.10
2023-02-12T06:13:40.179Z,6.10
2023-02-12T06:16:07.196Z,6.10
2023-02-12T06:18:36.844Z,6.10
2023-02-12T06:21:04.341Z,6.00
2023-02-12T06:23:30.945Z,6.00
2023-02-12T06:25:58.125Z,6.00
2023-02-12T06:28:25.160Z,6.00
2023-02-12T06:30:51.801Z,6.00
2023-02-12T06:33:18.359Z,6.00
2023-02-12T06:35:45.148Z,6.00
2023-02-12T06:38:11.724Z,5.90
2023-02-12T06:40:38.358Z,6.00
2023-02-12T06:43:04.974Z,6.00
2023-02-12T06:45:31.618Z,5.90
2023-02-12T06:47:58.176Z,5.90
2023-02-12T06:50:24.858Z,5.90
2023-02-12T06:52:51.532Z,5.90
2023-02-12T06:55:18.195Z,5.90
2023-02-12T06:57:44.884Z,5.90
2023-02-12T07:00:12.276Z,6.00
2023-02-12T07:02:39.185Z,5.90
2023-02-12T07:05:06.125Z,6.00
2023-02-12T07:07:33.444Z,6.00
2023-02-12T07:10:00.171Z,6.00
2023-02-12T07:12:27.114Z,6.00
2023-02-12T07:14:53.917Z,6.00
2023-02-12T07:17:20.523Z,6.00
2023-02-12T07:19:47.136Z,6.00
2023-02-12T07:22:13.822Z,5.90
2023-02-12T07:24:40.398Z,5.90
2023-02-12T07:27:07.063Z,5.90
2023-02-12T07:29:33.792Z,5.90
2023-02-12T07:32:00.918Z,6.00
2023-02-12T07:34:27.577Z,5.90
2023-02-12T07:36:54.156Z,5.90
2023-02-12T07:39:20.750Z,5.90
2023-02-12T07:41:47.315Z,5.90
2023-02-12T07:44:13.954Z,5.90
2023-02-12T07:46:44.955Z,5.90
2023-02-12T07:49:15.318Z,5.90
2023-02-12T07:51:42.396Z,5.90
2023-02-12T07:54:10.028Z,5.90
2023-02-12T07:56:38.963Z,5.90
2023-02-12T07:59:08.111Z,5.90
2023-02-12T08:01:37.665Z,6.00
2023-02-12T08:04:07.468Z,6.00
2023-02-12T08:06:36.657Z,6.00
2023-02-12T08:09:06.991Z,5.90
2023-02-12T08:11:33.807Z,6.00
2023-02-12T08:14:01.739Z,6.00
2023-02-12T08:16:29.240Z,6.10
2023-02-12T08:19:00.670Z,6.10
2023-02-12T08:21:34.277Z,6.10
2023-02-12T08:24:00.991Z,6.10
2023-02-12T08:26:38.866Z,6.20
2023-02-12T08:29:12.347Z,6.20
2023-02-12T08:31:44.319Z,6.30
2023-02-12T08:34:33.099Z,6.30
2023-02-12T08:37:04.199Z,6.40
2023-02-12T08:39:37.982Z,6.40
2023-02-12T08:42:07.410Z,6.40
2023-02-12T08:44:33.940Z,6.40
2023-02-12T08:47:03.847Z,6.40
2023-02-12T08:49:30.658Z,6.40
2023-02-12T08:52:01.999Z,6.40
2023-02-12T08:54:31.136Z,6.50
2023-02-12T08:57:00.163Z,6.50
2023-02-12T08:59:27.326Z,6.50
2023-02-12T09:01:54.984Z,6.60
2023-02-12T09:04:25.078Z,6.60
2023-02-12T09:06:53.382Z,6.70
2023-02-12T09:09:20.733Z,6.60
2023-02-12T09:11:47.910Z,6.70
2023-02-12T09:14:16.547Z,6.70
2023-02-12T09:16:43.440Z,6.80
2023-02-12T09:19:12.748Z,6.70
2023-02-12T09:21:39.323Z,6.70
2023-02-12T09:24:05.971Z,6.80
2023-02-12T09:26:32.613Z,6.80
2023-02-12T09:29:01.184Z,6.80
2023-02-12T09:31:29.590Z,6.90
2023-02-12T09:34:00.097Z,6.90
2023-02-12T09:36:26.921Z,6.90
2023-02-12T09:38:57.250Z,6.90
2023-02-12T09:41:33.776Z,6.90
2023-02-12T09:44:44.918Z,7.10
2023-02-12T09:47:23.824Z,7.40
2023-02-12T09:50:26.879Z,7.40
2023-02-12T09:52:56.851Z,7.30
2023-02-12T09:55:27.800Z,7.40
2023-02-12T09:57:55.071Z,7.30
2023-02-12T10:00:28.620Z,7.40
2023-02-12T10:02:55.668Z,7.40
2023-02-12T10:05:38.908Z,7.50
2023-02-12T10:08:28.947Z,7.50
2023-02-12T10:11:19.998Z,7.50
2023-02-12T10:14:01.620Z,7.60
2023-02-12T10:16:55.663Z,7.60
2023-02-12T10:19:42.455Z,7.80
2023-02-12T10:22:24.549Z,7.80
2023-02-12T10:25:44.466Z,7.80
2023-02-12T10:28:21.209Z,7.90
2023-02-12T10:31:00.334Z,8.00
2023-02-12T10:33:57.104Z,8.10
2023-02-12T10:36:39.662Z,8.20
2023-02-12T10:39:14.094Z,8.20
2023-02-12T10:41:49.734Z,8.30
2023-02-12T10:44:16.355Z,8.30
2023-02-12T10:46:43.033Z,8.30
2023-02-12T10:49:14.807Z,8.40
2023-02-12T10:52:02.098Z,8.50
2023-02-12T10:54:44.272Z,8.50
2023-02-12T10:57:31.255Z,8.40
2023-02-12T11:00:31.270Z,8.50
2023-02-12T11:03:06.917Z,8.60
2023-02-12T11:05:36.082Z,8.80
2023-02-12T11:08:03.400Z,8.90
2023-02-12T11:10:33.471Z,9.00
2023-02-12T11:13:01.848Z,9.10
2023-02-12T11:15:47.697Z,9.20
2023-02-12T11:18:26.547Z,9.20
2023-02-12T11:21:08.708Z,9.30
2023-02-12T11:23:43.401Z,9.40
2023-02-12T11:26:19.116Z,9.50
2023-02-12T11:29:18.257Z,9.50
2023-02-12T11:32:03.483Z,9.50
2023-02-12T11:34:30.437Z,9.50
2023-02-12T11:36:57.910Z,9.60
2023-02-12T11:39:32.430Z,9.60
2023-02-12T11:42:00.781Z,9.80
2023-02-12T11:44:35.977Z,9.70
2023-02-12T11:47:08.773Z,9.70
2023-02-12T11:49:42.682Z,9.70
2023-02-12T11:52:18.242Z,9.70
2023-02-12T11:54:48.305Z,9.60
2023-02-12T11:57:38.044Z,9.40
2023-02-12T12:00:19.948Z,9.40
2023-02-12T12:03:21.907Z,9.60
2023-02-12T12:05:52.042Z,9.60
2023-02-12T12:08:43.962Z,9.60
2023-02-12T12:11:19.757Z,9.50
2023-02-12T12:14:18.045Z,9.50
2023-02-12T12:17:21.606Z,9.60
2023-02-12T12:20:13.318Z,9.70
2023-02-12T12:22:58.724Z,9.60
2023-02-12T12:25:27.261Z,9.70
2023-02-12T12:28:08.022Z,9.70
2023-02-12T12:30:54.034Z,9.60
2023-02-12T12:33:37.067Z,9.60
2023-02-12T12:36:28.782Z,9.60
2023-02-12T12:38:58.057Z,9.60
2023-02-12T12:42:01.871Z,9.60
2023-02-12T12:44:41.986Z,9.70
2023-02-12T12:47:21.949Z,9.80
2023-02-12T12:50:19.301Z,9.70
2023-02-12T12:52:54.776Z,9.70
2023-02-12T12:56:02.622Z,9.70
2023-02-12T12:58:37.040Z,9.80
2023-02-12T13:01:37.072Z,10.00
2023-02-12T13:04:27.822Z,10.00
2023-02-12T13:07:16.144Z,10.10
2023-02-12T13:10:08.827Z,10.10
2023-02-12T13:12:54.240Z,10.30
2023-02-12T13:15:45.767Z,10.50
2023-02-12T13:18:27.097Z,10.50
2023-02-12T13:21:15.371Z,10.50
2023-02-12T13:24:02.416Z,10.50
2023-02-12T13:26:46.412Z,10.50
2023-02-12T13:29:19.375Z,10.50
2023-02-12T13:31:53.124Z,10.60
2023-02-12T13:34:21.765Z,10.60
2023-02-12T13:36:49.783Z,10.60
2023-02-12T13:39:34.906Z,10.60
2023-02-12T13:42:24.412Z,10.60
2023-02-12T13:45:01.287Z,10.60
2023-02-12T13:48:08.464Z,10.50
2023-02-12T13:50:44.623Z,10.50
2023-02-12T13:53:36.837Z,10.50
2023-02-12T13:56:16.162Z,10.40
2023-02-12T13:58:54.019Z,10.30
2023-02-12T14:01:49.376Z,10.30
2023-02-12T14:04:24.551Z,10.30
2023-02-12T14:07:14.897Z,10.30
2023-02-12T14:09:47.351Z,10.30
2023-02-12T14:12:25.590Z,10.20
2023-02-12T14:14:55.022Z,10.30
2023-02-12T14:17:30.850Z,10.30
2023-02-12T14:20:25.448Z,10.30
2023-02-12T14:22:51.928Z,10.30
2023-02-12T14:25:24.514Z,10.20
2023-02-12T14:28:06.378Z,10.20
2023-02-12T14:30:40.540Z,10.10
2023-02-12T14:33:07.167Z,10.10
2023-02-12T14:35:39.353Z,10.00
2023-02-12T14:38:30.385Z,10.00
2023-02-12T14:41:38.704Z,10.00
2023-02-12T14:44:17.259Z,10.00
2023-02-12T14:46:49.767Z,9.90
2023-02-12T14:49:38.640Z,10.00
2023-02-12T14:52:12.298Z,9.90
2023-02-12T14:54:50.902Z,9.90
2023-02-12T14:57:28.137Z,9.90
2023-02-12T15:00:17.667Z,9.80
2023-02-12T15:02:53.222Z,9.90
2023-02-12T15:05:42.383Z,9.70
2023-02-12T15:08:37.142Z,9.60
2023-02-12T15:11:19.885Z,9.60
2023-02-12T15:13:56.982Z,9.60
2023-02-12T15:16:34.857Z,9.60
2023-02-12T15:19:20.067Z,9.60
2023-02-12T15:21:47.239Z,9.60
2023-02-12T15:24:21.815Z,9.60
2023-02-12T15:26:51.274Z,9.60
2023-02-12T15:29:22.620Z,9.60
2023-02-12T15:32:00.581Z,9.60
2023-02-12T15:34:38.792Z,9.60
2023-02-12T15:37:05.450Z,9.60
2023-02-12T15:39:38.962Z,9.60
2023-02-12T15:42:05.601Z,9.60
2023-02-12T15:44:34.695Z,9.60
2023-02-12T15:47:13.649Z,9.60
2023-02-12T15:49:42.134Z,9.60
2023-02-12T15:52:15.621Z,9.60
2023-02-12T15:54:44.748Z,9.60
2023-02-12T15:57:14.115Z,9.50
2023-02-12T15:59:43.807Z,9.50
2023-02-12T16:02:24.915Z,9.50
2023-02-12T16:04:53.706Z,9.40
2023-02-12T16:07:20.780Z,9.40
2023-02-12T16:09:49.756Z,9.40
2023-02-12T16:12:20.047Z,9.40
2023-02-12T16:14:55.281Z,9.30
2023-02-12T16:17:24.759Z,9.30
2023-02-12T16:20:22.243Z,9.30
2023-02-12T16:22:50.496Z,9.30
2023-02-12T16:25:19.698Z,9.30
2023-02-12T16:28:31.625Z,9.30
2023-02-12T16:31:12.961Z,9.20
2023-02-12T16:33:39.445Z,9.20
2023-02-12T16:36:13.247Z,9.10
2023-02-12T16:38:45.188Z,9.10
2023-02-12T16:41:15.125Z,9.20
2023-02-12T16:43:41.811Z,9.20
2023-02-12T16:46:09.006Z,9.20
2023-02-12T16:48:44.727Z,9.20
2023-02-12T16:51:34.030Z,9.20
2023-02-12T16:54:02.832Z,9.10
2023-02-12T16:56:33.991Z,9.20
2023-02-12T16:59:01.761Z,9.20
2023-02-12T17:01:36.728Z,9.10
2023-02-12T17:04:14.854Z,9.10
2023-02-12T17:06:41.606Z,9.10
2023-02-12T17:09:09.438Z,9.10
2023-02-12T17:11:35.955Z,9.10
2023-02-12T17:14:02.498Z,9.10
2023-02-12T17:16:31.161Z,9.10
2023-02-12T17:18:59.735Z,9.10
2023-02-12T17:21:37.789Z,9.00
2023-02-12T17:24:14.980Z,9.00
2023-02-12T17:26:41.529Z,9.00
2023-02-12T17:29:08.055Z,9.00
2023-02-12T17:31:36.542Z,8.90
2023-02-12T17:34:03.939Z,9.00
2023-02-12T17:36:30.681Z,9.00
2023-02-12T17:38:57.222Z,9.00
2023-02-12T17:41:24.485Z,9.00
2023-02-12T17:43:51.254Z,9.00
2023-02-12T17:46:22.890Z,9.00
2023-02-12T17:48:49.450Z,8.90
2023-02-12T17:51:16.069Z,9.00
2023-02-12T17:53:42.885Z,8.90
2023-02-12T17:56:13.420Z,8.90
2023-02-12T17:58:41.587Z,8.90
2023-02-12T18:01:10.667Z,8.90
2023-02-12T18:03:37.873Z,9.00
2023-02-12T18:06:05.616Z,9.00
2023-02-12T18:08:32.231Z,9.00
2023-02-12T18:10:59.227Z,8.90
2023-02-12T18:13:25.903Z,8.90
2023-02-12T18:15:52.481Z,8.80
2023-02-12T18:18:19.107Z,8.90
2023-02-12T18:20:45.819Z,8.80
2023-02-12T18:23:12.414Z,8.80
2023-02-12T18:25:43.610Z,8.80
2023-02-12T18:28:11.313Z,8.80
2023-02-12T18:30:39.188Z,8.70
2023-02-12T18:33:06.380Z,8.70
2023-02-12T18:35:33.393Z,8.70
2023-02-12T18:37:59.956Z,8.60
2023-02-12T18:40:26.501Z,8.70
2023-02-12T18:42:53.084Z,8.70
2023-02-12T18:45:19.707Z,8.60
2023-02-12T18:47:46.380Z,8.70
2023-02-12T18:50:12.969Z,8.70
2023-02-12T18:52:39.688Z,8.70
2023-02-12T18:55:07.239Z,8.60
2023-02-12T18:57:33.876Z,8.70
2023-02-12T19:00:00.487Z,8.70
2023-02-12T19:02:27.157Z,8.70
2023-02-12T19:04:53.857Z,8.60
2023-02-12T19:07:20.565Z,8.60
2023-02-12T19:09:47.263Z,8.60
2023-02-12T19:12:13.943Z,8.60
2023-02-12T19:14:40.526Z,8.60
2023-02-12T19:17:07.119Z,8.60
2023-02-12T19:19:33.674Z,8.70
2023-02-12T19:22:00.216Z,8.80
2023-02-12T19:24:37.682Z,8.90
2023-02-12T19:27:11.201Z,8.70
2023-02-12T19:29:37.740Z,8.70
2023-02-12T19:32:04.500Z,8.60
2023-02-12T19:34:31.070Z,8.60
2023-02-12T19:36:57.622Z,8.60
2023-02-12T19:39:24.746Z,8.50
2023-02-12T19:41:51.914Z,8.50
2023-02-12T19:44:23.909Z,8.50
2023-02-12T19:46:51.642Z,8.50
2023-02-12T19:49:21.389Z,8.50
2023-02-12T19:51:48.801Z,8.50
2023-02-12T19:54:17.312Z,8.50
2023-02-12T19:56:44.171Z,8.40
2023-02-12T19:59:13.556Z,8.50
2023-02-12T20:01:40.186Z,8.40
2023-02-12T20:04:06.760Z,8.40
2023-02-12T20:06:36.180Z,8.40
2023-02-12T20:09:04.467Z,8.40
2023-02-12T20:11:32.763Z,8.40
2023-02-12T20:14:01.362Z,8.40
2023-02-12T20:16:33.451Z,8.40
2023-02-12T20:19:25.272Z,8.40
2023-02-12T20:21:55.167Z,8.30
2023-02-12T20:24:24.369Z,8.30
2023-02-12T20:26:51.569Z,8.30
2023-02-12T20:29:18.271Z,8.40
2023-02-12T20:31:45.362Z,8.40
2023-02-12T20:34:14.314Z,8.40
2023-02-12T20:36:42.607Z,8.40
2023-02-12T20:39:11.255Z,8.40
2023-02-12T20:41:38.089Z,8.30
2023-02-12T20:44:06.974Z,8.40
2023-02-12T20:46:36.032Z,8.30
2023-02-12T20:49:02.912Z,8.40
2023-02-12T20:51:29.486Z,8.40
2023-02-12T20:53:56.206Z,8.40
2023-02-12T20:56:25.531Z,8.40
2023-02-12T20:58:53.110Z,8.40
2023-02-12T21:01:21.408Z,8.40
2023-02-12T21:03:49.466Z,8.30
2023-02-12T21:06:16.207Z,8.30
2023-02-12T21:08:43.048Z,8.30
2023-02-12T21:11:15.178Z,8.30
2023-02-12T21:13:58.755Z,8.30
2023-02-12T21:16:38.624Z,8.40
2023-02-12T21:19:05.214Z,8.40
2023-02-12T21:21:34.459Z,8.40
2023-02-12T21:24:05.445Z,8.40
2023-02-12T21:26:36.428Z,8.40
2023-02-12T21:29:04.191Z,8.40
2023-02-12T21:31:33.656Z,8.40
2023-02-12T21:34:01.902Z,8.40
2023-02-12T21:36:34.357Z,8.40
2023-02-12T21:39:01.254Z,8.40
2023-02-12T21:41:31.153Z,8.40
2023-02-12T21:44:01.263Z,8.40
2023-02-12T21:46:28.916Z,8.40
2023-02-12T21:48:56.203Z,8.40
2023-02-12T21:51:28.175Z,8.40
2023-02-12T21:53:58.803Z,8.40
2023-02-12T21:56:26.756Z,8.40
2023-02-12T21:58:53.809Z,8.40
2023-02-12T22:01:26.122Z,8.40
2023-02-12T22:03:53.749Z,8.40
2023-02-12T22:06:22.281Z,8.30
2023-02-12T22:08:49.823Z,8.30
2023-02-12T22:11:16.777Z,8.30
2023-02-12T22:13:43.549Z,8.30
2023-02-12T22:16:15.680Z,8.30
2023-02-12T22:18:43.689Z,8.40
2023-02-12T22:21:13.450Z,8.30
2023-02-12T22:23:41.015Z,8.40
2023-02-12T22:26:15.941Z,8.40
2023-02-12T22:28:47.535Z,8.40
2023-02-12T22:31:21.804Z,8.40
2023-02-12T22:33:49.777Z,8.30
2023-02-12T22:36:17.829Z,8.30
2023-02-12T22:38:44.636Z,8.30
2023-02-12T22:41:11.288Z,8.20
2023-02-12T22:43:39.873Z,8.30
2023-02-12T22:46:08.681Z,8.20
2023-02-12T22:48:35.597Z,8.20
2023-02-12T22:51:09.330Z,8.20
2023-02-12T22:53:35.992Z,8.20
2023-02-12T22:56:04.868Z,8.20
2023-02-12T22:58:32.336Z,8.20
2023-02-12T23:01:03.787Z,8.20
2023-02-12T23:03:31.824Z,8.30
2023-02-12T23:06:01.918Z,8.30
2023-02-12T23:08:28.552Z,8.30
2023-02-12T23:10:55.677Z,8.30
2023-02-12T23:13:29.579Z,8.20
2023-02-12T23:15:57.301Z,8.20
2023-02-12T23:18:24.127Z,8.20
2023-02-12T23:20:52.436Z,8.20
2023-02-12T23:23:20.075Z,8.20
2023-02-12T23:25:46.996Z,8.20
2023-02-12T23:28:13.877Z,8.20
2023-02-12T23:30:40.618Z,8.20
2023-02-12T23:33:07.327Z,8.20
2023-02-12T23:35:34.313Z,8.20
2023-02-12T23:38:01.134Z,8.10
2023-02-12T23:40:27.869Z,8.10
2023-02-12T23:42:54.598Z,8.10
2023-02-12T23:45:21.102Z,8.10
2023-02-12T23:47:47.641Z,8.20
2023-02-12T23:50:14.228Z,8.10
2023-02-12T23:52:40.812Z,8.10
2023-02-12T23:55:07.868Z,8.10
2023-02-12T23:57:35.136Z,8.10
